Cleveland, Ohio
Traffic Map
Current Weather Conditions
Cleveland, Ohio
Clear
Clear
62°
Feels Like: 62°
Wind Chill: 62° Ceiling: Unl
Heat Index: 62° Visibility: 10mi
Dew Point: 57° Wind: 16mph
Humidity: 84% Direction: 160° (SSE)
Pressure: 30.02in Gusts: 0mph
Raw Report DataKBKL 200853Z AUTO 16014KT 10SM CLR 17/14 A3002 RMK AO2 SLP165 T01670139 58008
Traffic Incident Summary
Active as of:
Severity:
Category:
InformationThere was an issue retrieving the traffic information for this location. Please try a different location or try again shortly.
Advertisements
Track Severe Weather on mobile